createdAt,value
2023-10-29T00:00:20.497Z,18.44
2023-10-29T00:02:53.034Z,18.44
2023-10-29T00:05:21.717Z,18.45
2023-10-29T00:07:51.556Z,18.46
2023-10-29T00:10:20.156Z,18.45
2023-10-29T00:12:49.606Z,18.45
2023-10-29T00:15:18.434Z,18.46
2023-10-29T00:17:47.449Z,18.47
2023-10-29T00:20:15.988Z,18.47
2023-10-29T00:22:44.721Z,18.47
2023-10-29T00:25:14.692Z,18.48
2023-10-29T00:27:43.267Z,18.48
2023-10-29T00:30:12.896Z,18.47
2023-10-29T00:32:41.359Z,18.49
2023-10-29T00:35:11.222Z,18.51
2023-10-29T00:37:39.723Z,18.51
2023-10-29T00:40:10.588Z,18.52
2023-10-29T00:42:40.620Z,18.54
2023-10-29T00:45:10.569Z,18.54
2023-10-29T00:47:39.574Z,18.56
2023-10-29T00:50:09.346Z,18.56
2023-10-29T00:52:37.716Z,18.57
2023-10-29T00:55:07.065Z,18.59
2023-10-29T00:57:35.715Z,18.59
2023-10-29T01:00:07.757Z,18.60
2023-10-29T01:02:37.354Z,18.59
2023-10-29T01:05:06.794Z,18.59
2023-10-29T01:07:35.727Z,18.59
2023-10-29T01:10:04.195Z,18.59
2023-10-29T01:12:32.583Z,18.61
2023-10-29T01:15:02.504Z,18.61
2023-10-29T01:17:32.636Z,18.62
2023-10-29T01:20:01.214Z,18.62
2023-10-29T01:22:29.648Z,18.63
2023-10-29T01:24:58.110Z,18.62
2023-10-29T01:27:25.568Z,18.64
2023-10-29T01:29:54.210Z,18.62
2023-10-29T01:32:22.784Z,18.63
2023-10-29T01:34:52.675Z,18.64
2023-10-29T01:37:21.163Z,18.64
2023-10-29T01:39:49.630Z,18.65
2023-10-29T01:42:18.113Z,18.66
2023-10-29T01:44:46.807Z,18.65
2023-10-29T01:47:15.618Z,18.64
2023-10-29T01:49:43.997Z,18.65
2023-10-29T01:52:14.011Z,18.64
2023-10-29T01:54:43.260Z,18.66
2023-10-29T01:57:11.729Z,18.66
2023-10-29T01:59:40.135Z,18.65
2023-10-29T02:02:08.586Z,18.67
2023-10-29T02:04:37.225Z,18.68
2023-10-29T02:07:06.024Z,18.67
2023-10-29T02:09:35.965Z,18.69
2023-10-29T02:12:05.331Z,18.69
2023-10-29T02:14:35.821Z,18.69
2023-10-29T02:17:04.420Z,18.69
2023-10-29T02:19:32.836Z,18.69
2023-10-29T02:22:03.354Z,18.71
2023-10-29T02:24:31.854Z,18.69
2023-10-29T02:27:00.219Z,18.71
2023-10-29T02:29:28.713Z,18.71
2023-10-29T02:31:57.131Z,18.72
2023-10-29T02:34:25.526Z,18.71
2023-10-29T02:36:54.027Z,18.71
2023-10-29T02:39:23.788Z,18.69
2023-10-29T02:41:52.209Z,18.70
2023-10-29T02:44:20.846Z,18.69
2023-10-29T02:46:49.244Z,18.70
2023-10-29T02:49:17.660Z,18.70
2023-10-29T02:51:46.921Z,18.71
2023-10-29T02:54:15.358Z,18.70
2023-10-29T02:56:45.357Z,18.70
2023-10-29T02:59:13.794Z,18.71
2023-10-29T03:01:42.491Z,18.70
2023-10-29T03:04:12.180Z,18.70
2023-10-29T03:06:43.211Z,18.69
2023-10-29T03:09:12.494Z,18.69
2023-10-29T03:11:40.544Z,18.69
2023-10-29T03:14:10.430Z,18.69
2023-10-29T03:16:39.448Z,18.70
2023-10-29T03:19:08.279Z,18.71
2023-10-29T03:21:37.282Z,18.69
2023-10-29T03:24:06.890Z,18.70
2023-10-29T03:26:35.314Z,18.70
2023-10-29T03:29:04.809Z,18.70
2023-10-29T03:31:35.808Z,18.70
2023-10-29T03:34:04.633Z,18.70
2023-10-29T03:36:34.224Z,18.69
2023-10-29T03:39:02.719Z,18.72
2023-10-29T03:41:31.908Z,18.72
2023-10-29T03:44:00.311Z,18.71
2023-10-29T03:46:29.154Z,18.71
2023-10-29T03:48:59.320Z,18.73
2023-10-29T03:51:29.776Z,18.72
2023-10-29T03:53:58.838Z,18.73
2023-10-29T03:56:27.364Z,18.73
2023-10-29T03:58:55.876Z,18.73
2023-10-29T04:01:28.065Z,18.73
2023-10-29T04:03:58.035Z,18.74
2023-10-29T04:06:26.564Z,18.75
2023-10-29T04:08:56.344Z,18.75
2023-10-29T04:11:24.689Z,18.78
2023-10-29T04:13:53.217Z,18.79
2023-10-29T04:16:21.684Z,18.79
2023-10-29T04:18:50.175Z,18.80
2023-10-29T04:21:19.975Z,18.81
2023-10-29T04:23:48.561Z,18.82
2023-10-29T04:26:17.236Z,18.83
2023-10-29T04:28:46.116Z,18.83
2023-10-29T04:31:14.663Z,18.84
2023-10-29T04:33:46.221Z,18.87
2023-10-29T04:36:22.509Z,18.88
2023-10-29T04:38:51.439Z,18.87
2023-10-29T04:41:20.421Z,18.87
2023-10-29T04:43:49.180Z,18.89
2023-10-29T04:46:17.818Z,18.89
2023-10-29T04:48:46.511Z,18.90
2023-10-29T04:51:14.884Z,18.90
2023-10-29T04:53:44.645Z,18.91
2023-10-29T04:56:13.077Z,18.91
2023-10-29T04:58:41.429Z,18.92
2023-10-29T05:01:09.836Z,18.91
2023-10-29T05:03:38.564Z,18.91
2023-10-29T05:06:07.538Z,18.92
2023-10-29T05:08:36.102Z,18.93
2023-10-29T05:11:06.115Z,18.94
2023-10-29T05:13:34.535Z,18.95
2023-10-29T05:16:03.310Z,18.95
2023-10-29T05:18:31.876Z,18.95
2023-10-29T05:21:02.870Z,18.95
2023-10-29T05:23:32.100Z,18.96
2023-10-29T05:26:00.522Z,18.98
2023-10-29T05:28:30.394Z,18.98
2023-10-29T05:30:58.970Z,18.99
2023-10-29T05:33:27.407Z,18.99
2023-10-29T05:35:58.643Z,19.00
2023-10-29T05:38:27.218Z,19.01
2023-10-29T05:40:55.693Z,19.03
2023-10-29T05:43:24.113Z,19.03
2023-10-29T05:45:53.884Z,19.05
2023-10-29T05:48:22.384Z,19.06
2023-10-29T05:50:50.774Z,19.06
2023-10-29T05:53:19.251Z,19.06
2023-10-29T05:55:47.680Z,19.08
2023-10-29T05:58:16.265Z,19.06
2023-10-29T06:00:44.718Z,19.08
2023-10-29T06:03:14.694Z,19.09
2023-10-29T06:05:43.216Z,19.09
2023-10-29T06:08:11.693Z,19.09
2023-10-29T06:10:40.167Z,19.10
2023-10-29T06:13:08.601Z,19.09
2023-10-29T06:15:37.087Z,19.09
2023-10-29T06:18:07.688Z,19.07
2023-10-29T06:20:42.648Z,19.09
2023-10-29T06:23:11.438Z,19.08
2023-10-29T06:25:40.247Z,19.10
2023-10-29T06:28:09.121Z,19.09
2023-10-29T06:30:37.594Z,19.10
2023-10-29T06:33:06.338Z,19.11
2023-10-29T06:35:34.940Z,19.11
2023-10-29T06:38:05.128Z,19.12
2023-10-29T06:40:33.543Z,19.13
2023-10-29T06:43:02.746Z,19.14
2023-10-29T06:45:31.232Z,19.13
2023-10-29T06:47:59.972Z,19.13
2023-10-29T06:50:28.533Z,19.12
2023-10-29T06:52:57.176Z,19.14
2023-10-29T06:55:26.944Z,19.15
2023-10-29T06:57:55.392Z,19.16
2023-10-29T07:00:23.816Z,19.16
2023-10-29T07:02:52.539Z,19.16
2023-10-29T07:05:22.042Z,19.18
2023-10-29T07:07:50.576Z,19.19
2023-10-29T07:10:19.293Z,19.18
2023-10-29T07:12:49.352Z,19.21
2023-10-29T07:15:18.196Z,19.19
2023-10-29T07:17:46.577Z,19.21
2023-10-29T07:20:15.081Z,19.21
2023-10-29T07:22:43.667Z,19.23
2023-10-29T07:25:12.736Z,19.24
2023-10-29T07:27:41.133Z,19.24
2023-10-29T07:30:12.213Z,19.26
2023-10-29T07:32:40.609Z,19.25
2023-10-29T07:35:09.882Z,19.27
2023-10-29T07:37:38.325Z,19.28
2023-10-29T07:40:08.875Z,19.30
2023-10-29T07:42:37.322Z,19.29
2023-10-29T07:45:07.004Z,19.29
2023-10-29T07:47:36.965Z,19.28
2023-10-29T07:50:07.297Z,19.28
2023-10-29T07:52:40.974Z,19.27
2023-10-29T07:55:10.834Z,19.30
2023-10-29T07:57:40.406Z,19.30
2023-10-29T08:00:11.402Z,19.29
2023-10-29T08:02:45.012Z,19.31
2023-10-29T08:05:13.843Z,19.31
2023-10-29T08:07:42.857Z,19.32
2023-10-29T08:10:12.780Z,19.32
2023-10-29T08:12:41.203Z,19.33
2023-10-29T08:15:10.896Z,19.34
2023-10-29T08:17:40.926Z,19.35
2023-10-29T08:20:12.837Z,19.36
2023-10-29T08:22:42.247Z,19.35
2023-10-29T08:25:12.937Z,19.35
2023-10-29T08:27:41.435Z,19.36
2023-10-29T08:30:11.446Z,19.36
2023-10-29T08:32:40.051Z,19.36
2023-10-29T08:35:10.739Z,19.38
2023-10-29T08:37:39.101Z,19.39
2023-10-29T08:40:09.398Z,19.39
2023-10-29T08:42:38.490Z,19.40
2023-10-29T08:45:08.400Z,19.40
2023-10-29T08:47:38.117Z,19.39
2023-10-29T08:50:07.722Z,19.41
2023-10-29T08:52:38.401Z,19.41
2023-10-29T08:55:08.049Z,19.39
2023-10-29T08:57:36.760Z,19.41
2023-10-29T09:00:06.203Z,19.43
2023-10-29T09:02:34.718Z,19.43
2023-10-29T09:05:03.269Z,19.46
2023-10-29T09:07:31.822Z,19.46
2023-10-29T09:10:01.857Z,19.47
2023-10-29T09:12:30.289Z,19.51
2023-10-29T09:14:59.140Z,19.54
2023-10-29T09:17:27.756Z,19.54
2023-10-29T09:19:56.532Z,19.55
2023-10-29T09:22:25.036Z,19.56
2023-10-29T09:24:53.840Z,19.57
2023-10-29T09:27:23.853Z,19.58
2023-10-29T09:29:52.579Z,19.59
2023-10-29T09:32:21.083Z,19.60
2023-10-29T09:34:49.686Z,19.62
2023-10-29T09:37:18.242Z,19.63
2023-10-29T09:39:46.697Z,19.64
2023-10-29T09:42:19.545Z,19.63
2023-10-29T09:44:55.047Z,19.63
2023-10-29T09:47:24.758Z,19.63
2023-10-29T09:49:53.504Z,19.66
2023-10-29T09:52:26.793Z,19.69
2023-10-29T09:54:59.279Z,19.68
2023-10-29T09:57:28.303Z,19.68
2023-10-29T09:59:58.182Z,19.71
2023-10-29T10:02:27.361Z,19.72
2023-10-29T10:04:57.586Z,19.74
2023-10-29T10:07:27.514Z,19.74
2023-10-29T10:09:57.230Z,19.75
2023-10-29T10:12:26.576Z,19.76
2023-10-29T10:15:07.453Z,19.79
2023-10-29T10:17:35.933Z,19.82
2023-10-29T10:20:11.450Z,19.87
2023-10-29T10:22:40.432Z,19.89
2023-10-29T10:25:17.922Z,19.93
2023-10-29T10:27:53.456Z,19.97
2023-10-29T10:30:31.664Z,20.00
2023-10-29T10:33:12.522Z,20.03
2023-10-29T10:35:43.039Z,20.05
2023-10-29T10:38:11.985Z,20.06
2023-10-29T10:40:41.071Z,20.09
2023-10-29T10:43:10.324Z,20.11
2023-10-29T10:45:40.162Z,20.14
2023-10-29T10:48:09.413Z,20.15
2023-10-29T10:50:39.384Z,20.17
2023-10-29T10:53:09.196Z,20.19
2023-10-29T10:55:51.301Z,20.20
2023-10-29T10:58:27.400Z,20.25
2023-10-29T11:01:00.126Z,20.29
2023-10-29T11:03:33.295Z,20.33
2023-10-29T11:06:02.395Z,20.37
2023-10-29T11:08:31.014Z,20.40
2023-10-29T11:11:01.029Z,20.43
2023-10-29T11:13:29.671Z,20.43
2023-10-29T11:15:59.538Z,20.44
2023-10-29T11:18:33.791Z,20.45
2023-10-29T11:21:04.989Z,20.43
2023-10-29T11:23:35.806Z,20.43
2023-10-29T11:26:22.599Z,20.46
2023-10-29T11:28:52.822Z,20.46
2023-10-29T11:31:23.965Z,20.48
2023-10-29T11:34:35.700Z,20.48
2023-10-29T11:37:40.264Z,20.47
2023-10-29T11:40:32.450Z,20.49
2023-10-29T11:43:17.921Z,20.50
2023-10-29T11:46:00.555Z,20.52
2023-10-29T11:48:34.624Z,20.52
2023-10-29T11:51:27.612Z,20.53
2023-10-29T11:53:57.229Z,20.55
2023-10-29T11:56:29.208Z,20.55
2023-10-29T11:59:06.794Z,20.57
2023-10-29T12:01:37.014Z,20.55
2023-10-29T12:04:10.502Z,20.56
2023-10-29T12:06:44.273Z,20.57
2023-10-29T12:09:20.352Z,20.57
2023-10-29T12:11:50.426Z,20.56
2023-10-29T12:14:40.722Z,20.55
2023-10-29T12:17:09.751Z,20.53
2023-10-29T12:19:41.498Z,20.55
2023-10-29T12:22:19.242Z,20.53
2023-10-29T12:24:49.686Z,20.51
2023-10-29T12:27:19.990Z,20.46
2023-10-29T12:29:48.593Z,20.44
2023-10-29T12:32:18.426Z,20.40
2023-10-29T12:34:53.779Z,20.38
2023-10-29T12:37:24.369Z,20.35
2023-10-29T12:39:56.092Z,20.34
2023-10-29T12:42:25.219Z,20.30
2023-10-29T12:44:55.464Z,20.29
2023-10-29T12:47:24.864Z,20.28
2023-10-29T12:50:04.892Z,20.29
2023-10-29T12:52:33.448Z,20.25
2023-10-29T12:55:01.921Z,20.27
2023-10-29T12:57:30.360Z,20.27
2023-10-29T12:59:58.820Z,20.26
2023-10-29T13:02:28.588Z,20.25
2023-10-29T13:04:57.249Z,20.24
2023-10-29T13:07:28.206Z,20.23
2023-10-29T13:10:01.041Z,20.22
2023-10-29T13:12:29.397Z,20.20
2023-10-29T13:14:57.790Z,20.22
2023-10-29T13:17:26.343Z,20.22
2023-10-29T13:19:54.786Z,20.22
2023-10-29T13:22:23.960Z,20.22
2023-10-29T13:24:53.883Z,20.23
2023-10-29T13:27:22.477Z,20.24
2023-10-29T13:29:50.982Z,20.21
2023-10-29T13:32:21.037Z,20.21
2023-10-29T13:34:50.056Z,20.21
2023-10-29T13:37:19.313Z,20.23
2023-10-29T13:39:47.726Z,20.22
2023-10-29T13:42:19.678Z,20.22
2023-10-29T13:44:48.350Z,20.20
2023-10-29T13:47:16.908Z,20.19
2023-10-29T13:49:45.423Z,20.21
2023-10-29T13:52:14.215Z,20.20
2023-10-29T13:54:44.136Z,20.22
2023-10-29T13:57:12.673Z,20.22
2023-10-29T13:59:42.669Z,20.23
2023-10-29T14:02:11.150Z,20.22
2023-10-29T14:04:39.482Z,20.22
2023-10-29T14:07:08.003Z,20.22
2023-10-29T14:09:36.345Z,20.23
2023-10-29T14:12:05.616Z,20.23
2023-10-29T14:14:34.049Z,20.25
2023-10-29T14:17:06.262Z,20.23
2023-10-29T14:19:36.393Z,20.24
2023-10-29T14:22:05.423Z,20.23
2023-10-29T14:24:33.909Z,20.22
2023-10-29T14:27:02.341Z,20.22
2023-10-29T14:29:30.781Z,20.22
2023-10-29T14:31:59.279Z,20.22
2023-10-29T14:34:29.181Z,20.21
2023-10-29T14:36:57.580Z,20.20
2023-10-29T14:39:26.339Z,20.19
2023-10-29T14:41:54.872Z,20.19
2023-10-29T14:44:23.367Z,20.17
2023-10-29T14:46:51.935Z,20.17
2023-10-29T14:49:20.404Z,20.16
2023-10-29T14:51:50.442Z,20.15
2023-10-29T14:54:20.087Z,20.11
2023-10-29T14:56:48.966Z,20.11
2023-10-29T14:59:17.391Z,20.09
2023-10-29T15:01:46.332Z,20.10
2023-10-29T15:04:14.919Z,20.10
2023-10-29T15:06:45.889Z,20.10
2023-10-29T15:09:17.031Z,20.10
2023-10-29T15:11:45.651Z,20.09
2023-10-29T15:14:14.081Z,20.08
2023-10-29T15:16:42.512Z,20.07
2023-10-29T15:21:40.357Z,20.05
2023-10-29T15:24:09.636Z,20.05
2023-10-29T15:26:39.416Z,20.06
2023-10-29T15:29:07.703Z,20.04
2023-10-29T15:31:36.166Z,20.04
2023-10-29T15:34:04.748Z,20.04
2023-10-29T15:36:33.117Z,20.05
2023-10-29T15:39:01.678Z,20.05
2023-10-29T15:41:30.113Z,20.08
2023-10-29T15:43:59.848Z,20.08
2023-10-29T15:46:28.494Z,20.09
2023-10-29T15:48:57.100Z,20.08
2023-10-29T15:51:26.936Z,20.09
2023-10-29T15:53:55.814Z,20.09
2023-10-29T15:56:25.866Z,20.09
2023-10-29T15:58:54.481Z,20.08
2023-10-29T16:01:24.434Z,20.08
2023-10-29T16:03:52.937Z,20.08
2023-10-29T16:06:21.355Z,20.09
2023-10-29T16:08:49.888Z,20.07
2023-10-29T16:11:24.125Z,20.08
2023-10-29T16:13:52.706Z,20.06
2023-10-29T16:16:21.103Z,20.06
2023-10-29T16:18:51.452Z,20.07
2023-10-29T16:21:20.531Z,20.08
2023-10-29T16:23:49.008Z,20.07
2023-10-29T16:26:17.686Z,20.07
2023-10-29T16:28:46.598Z,20.06
2023-10-29T16:31:19.467Z,20.06
2023-10-29T16:33:48.234Z,20.06
2023-10-29T16:36:18.201Z,20.05
2023-10-29T16:38:46.796Z,20.02
2023-10-29T16:41:17.225Z,20.02
2023-10-29T16:43:48.381Z,20.01
2023-10-29T16:46:19.537Z,20.01
2023-10-29T16:48:49.186Z,20.01
2023-10-29T16:51:19.558Z,19.99
2023-10-29T16:53:48.207Z,19.98
2023-10-29T16:56:17.621Z,19.98
2023-10-29T16:58:46.043Z,19.94
2023-10-29T17:01:14.886Z,19.94
2023-10-29T17:03:43.914Z,19.94
2023-10-29T17:06:12.472Z,19.95
2023-10-29T17:08:42.447Z,19.94
2023-10-29T17:11:11.087Z,19.92
2023-10-29T17:13:39.510Z,19.91
2023-10-29T17:16:08.457Z,19.88
2023-10-29T17:18:37.189Z,19.88
2023-10-29T17:21:06.552Z,19.88
2023-10-29T17:23:35.491Z,19.86
2023-10-29T17:26:05.672Z,19.84
2023-10-29T17:28:34.028Z,19.83
2023-10-29T17:31:05.552Z,19.82
2023-10-29T17:33:34.083Z,19.79
2023-10-29T17:36:02.557Z,19.78
2023-10-29T17:38:31.211Z,19.76
2023-10-29T17:40:59.799Z,19.74
2023-10-29T17:43:29.668Z,19.73
2023-10-29T17:45:58.383Z,19.72
2023-10-29T17:48:30.011Z,19.70
2023-10-29T17:50:59.109Z,19.69
2023-10-29T17:53:28.745Z,19.68
2023-10-29T17:55:57.324Z,19.66
2023-10-29T17:58:25.778Z,19.66
2023-10-29T18:00:55.861Z,19.66
2023-10-29T18:03:24.583Z,19.66
2023-10-29T18:05:53.461Z,19.65
2023-10-29T18:08:22.388Z,19.63
2023-10-29T18:10:50.980Z,19.61
2023-10-29T18:13:19.432Z,19.60
2023-10-29T18:15:48.015Z,19.61
2023-10-29T18:18:18.048Z,19.59
2023-10-29T18:20:46.646Z,19.58
2023-10-29T18:23:15.221Z,19.58
2023-10-29T18:25:43.597Z,19.57
2023-10-29T18:28:12.103Z,19.56
2023-10-29T18:30:40.502Z,19.56
2023-10-29T18:33:09.165Z,19.55
2023-10-29T18:35:39.035Z,19.55
2023-10-29T18:38:08.787Z,19.53
2023-10-29T18:40:37.312Z,19.52
2023-10-29T18:43:05.665Z,19.50
2023-10-29T18:45:34.922Z,19.48
2023-10-29T18:48:03.686Z,19.48
2023-10-29T18:50:33.607Z,19.48
2023-10-29T18:53:04.212Z,19.46
2023-10-29T18:55:32.725Z,19.45
2023-10-29T18:58:01.156Z,19.43
2023-10-29T19:00:29.894Z,19.43
2023-10-29T19:02:58.540Z,19.43
2023-10-29T19:05:27.074Z,19.43
2023-10-29T19:07:56.055Z,19.43
2023-10-29T19:10:25.786Z,19.44
2023-10-29T19:12:54.325Z,19.43
2023-10-29T19:15:23.019Z,19.43
2023-10-29T19:17:51.594Z,19.42
2023-10-29T19:20:20.442Z,19.43
2023-10-29T19:22:48.830Z,19.42
2023-10-29T19:25:17.529Z,19.42
2023-10-29T19:27:47.601Z,19.43
2023-10-29T19:30:16.143Z,19.42
2023-10-29T19:32:45.115Z,19.42
2023-10-29T19:35:13.470Z,19.43
2023-10-29T19:37:41.922Z,19.42
2023-10-29T19:40:11.610Z,19.41
2023-10-29T19:42:40.168Z,19.41
2023-10-29T19:45:11.843Z,19.43
2023-10-29T19:47:40.624Z,19.43
2023-10-29T19:50:10.498Z,19.47
2023-10-29T19:52:38.960Z,19.48
2023-10-29T19:55:09.078Z,19.50
2023-10-29T19:57:37.703Z,19.50
2023-10-29T20:00:08.159Z,19.51
2023-10-29T20:02:37.955Z,19.52
2023-10-29T20:05:08.339Z,19.53
2023-10-29T20:07:36.849Z,19.52
2023-10-29T20:10:08.912Z,19.55
2023-10-29T20:12:39.305Z,19.55
2023-10-29T20:15:10.523Z,19.56
2023-10-29T20:17:40.612Z,19.56
2023-10-29T20:20:12.314Z,19.59
2023-10-29T20:22:40.769Z,19.57
2023-10-29T20:25:10.108Z,19.59
2023-10-29T20:27:38.519Z,19.58
2023-10-29T20:30:08.496Z,19.58
2023-10-29T20:32:36.996Z,19.57
2023-10-29T20:35:07.552Z,19.59
2023-10-29T20:37:35.953Z,19.56
2023-10-29T20:40:04.717Z,19.58
2023-10-29T20:42:33.361Z,19.56
2023-10-29T20:45:01.820Z,19.58
2023-10-29T20:47:30.222Z,19.58
2023-10-29T20:49:59.191Z,19.57
2023-10-29T20:52:28.934Z,19.57
2023-10-29T20:54:57.282Z,19.57
2023-10-29T20:57:25.848Z,19.57
2023-10-29T20:59:54.545Z,19.56
2023-10-29T21:02:23.560Z,19.56
2023-10-29T21:04:54.009Z,19.56
2023-10-29T21:07:22.522Z,19.54
2023-10-29T21:09:52.362Z,19.54
2023-10-29T21:12:21.047Z,19.52
2023-10-29T21:14:49.479Z,19.53
2023-10-29T21:17:17.926Z,19.51
2023-10-29T21:19:46.614Z,19.50
2023-10-29T21:22:15.401Z,19.48
2023-10-29T21:24:43.806Z,19.48
2023-10-29T21:27:13.846Z,19.47
2023-10-29T21:29:42.454Z,19.45
2023-10-29T21:32:10.963Z,19.44
2023-10-29T21:34:39.410Z,19.41
2023-10-29T21:37:07.916Z,19.40
2023-10-29T21:39:36.397Z,19.39
2023-10-29T21:42:05.602Z,19.38
2023-10-29T21:44:35.528Z,19.38
2023-10-29T21:47:04.033Z,19.36
2023-10-29T21:49:35.067Z,19.36
2023-10-29T21:52:03.647Z,19.35
2023-10-29T21:54:34.489Z,19.34
2023-10-29T21:57:04.172Z,19.32
2023-10-29T21:59:34.079Z,19.32
2023-10-29T22:02:02.573Z,19.29
2023-10-29T22:04:32.224Z,19.29
2023-10-29T22:07:00.768Z,19.29
2023-10-29T22:09:29.204Z,19.27
2023-10-29T22:11:57.674Z,19.27
2023-10-29T22:14:26.117Z,19.27
2023-10-29T22:16:56.320Z,19.26
2023-10-29T22:19:24.697Z,19.25
2023-10-29T22:21:53.307Z,19.25
2023-10-29T22:24:22.032Z,19.24
2023-10-29T22:26:51.057Z,19.24
2023-10-29T22:29:22.484Z,19.24
2023-10-29T22:31:51.182Z,19.24
2023-10-29T22:34:21.052Z,19.23
2023-10-29T22:36:49.720Z,19.20
2023-10-29T22:39:18.922Z,19.22
2023-10-29T22:41:47.384Z,19.22
2023-10-29T22:44:15.891Z,19.21
2023-10-29T22:46:47.923Z,19.22
2023-10-29T22:49:20.039Z,19.22
2023-10-29T22:51:49.746Z,19.22
2023-10-29T22:54:18.809Z,19.18
2023-10-29T22:56:47.332Z,19.19
2023-10-29T22:59:15.747Z,19.17
2023-10-29T23:01:44.184Z,19.18
2023-10-29T23:04:12.658Z,19.16
2023-10-29T23:06:41.197Z,19.17
2023-10-29T23:09:11.173Z,19.17
2023-10-29T23:11:39.673Z,19.14
2023-10-29T23:14:08.164Z,19.14
2023-10-29T23:16:36.773Z,19.14
2023-10-29T23:19:05.334Z,19.15
2023-10-29T23:21:33.759Z,19.13
2023-10-29T23:24:02.335Z,19.12
2023-10-29T23:26:32.579Z,19.13
2023-10-29T23:29:01.014Z,19.10
2023-10-29T23:31:29.661Z,19.12
2023-10-29T23:33:58.473Z,19.11
2023-10-29T23:36:27.024Z,19.08
2023-10-29T23:38:55.712Z,19.06
2023-10-29T23:41:24.104Z,19.08
2023-10-29T23:43:54.337Z,19.10
2023-10-29T23:46:22.755Z,19.08
2023-10-29T23:48:51.200Z,19.08
2023-10-29T23:51:19.629Z,19.06
2023-10-29T23:53:48.176Z,19.07
2023-10-29T23:56:16.767Z,19.06
2023-10-29T23:58:45.115Z,19.07
